Time,TemperatureF,DewpointF,PressureIn,WindDirection,WindDirectionDegrees,WindSpeedMPH,WindSpeedGustMPH,Humidity,HourlyPrecipIn,Conditions,Clouds,dailyrainin,SoftwareType,DateUTC
2013-12-07 01:23:00,19.0,14.0,30.34,WNW,285,9.0,15.0,81,-99.99,,,-99.99,,2013-12-07 06:23:00,
2013-12-07 01:43:00,18.0,13.0,30.34,West,265,9.0,14.0,80,-99.99,,,-99.99,,2013-12-07 06:43:00,
2013-12-07 02:12:00,18.0,13.0,30.34,West,280,7.0,15.0,81,-99.99,,,-99.99,,2013-12-07 07:12:00,
2013-12-07 02:22:00,18.0,13.0,30.34,West,280,7.0,15.0,81,-99.99,,,-99.99,,2013-12-07 07:22:00,
2013-12-07 07:22:00,15.0,7.0,30.40,West,280,10.0,15.0,70,-99.99,,,-99.99,,2013-12-07 12:22:00,
2013-12-07 07:52:00,14.0,8.0,30.40,West,270,11.0,17.0,74,-99.99,,,-99.99,,2013-12-07 12:52:00,
2013-12-07 08:22:00,15.0,9.0,30.40,West,275,10.0,16.0,77,-99.99,,,-99.99,,2013-12-07 13:22:00,
2013-12-07 09:12:00,14.0,8.0,30.40,WNW,290,6.0,16.0,76,-99.99,,,-99.99,,2013-12-07 14:12:00,
2013-12-07 09:22:00,15.0,9.0,30.40,West,270,9.0,17.0,78,-99.99,,,-99.99,,2013-12-07 14:22:00,
2013-12-07 10:43:00,17.0,11.0,30.47,West,260,8.0,18.0,75,-99.99,,,-99.99,,2013-12-07 15:43:00,
2013-12-07 11:24:00,19.0,12.0,30.47,West,270,7.0,16.0,73,-99.99,,,-99.99,,2013-12-07 16:24:00,
2013-12-07 14:22:00,24.0,14.0,30.48,West,270,4.0,13.0,65,-99.99,,,-99.99,,2013-12-07 19:22:00,
2013-12-07 14:42:00,24.0,14.0,30.48,West,260,4.0,13.0,65,-99.99,,,-99.99,,2013-12-07 19:42:00,
2013-12-07 15:22:00,23.0,13.0,30.48,West,270,5.0,11.0,65,-99.99,,,-99.99,,2013-12-07 20:22:00,
2013-12-07 16:22:00,23.0,12.0,30.48,West,280,4.0,16.0,62,-99.99,,,-99.99,,2013-12-07 21:22:00,
2013-12-07 17:23:00,20.0,9.0,30.49,West,275,6.0,13.0,61,-99.99,,,-99.99,,2013-12-07 22:23:00,
2013-12-07 18:22:00,18.0,6.0,30.49,WNW,285,5.0,9.0,59,-99.99,,,-99.99,,2013-12-07 23:22:00,
2013-12-07 19:22:00,17.0,7.0,30.51,WNW,290,4.0,8.0,63,-99.99,,,-99.99,,2013-12-08 00:22:00,
2013-12-07 19:42:00,16.0,6.0,30.51,WNW,300,5.0,10.0,64,-99.99,,,-99.99,,2013-12-08 00:42:00,
2013-12-07 20:22:00,17.0,6.0,30.51,WNW,290,6.0,13.0,62,-99.99,,,-99.99,,2013-12-08 01:22:00,
2013-12-07 21:22:00,16.0,6.0,30.51,NW,320,6.0,10.0,64,-99.99,,,-99.99,,2013-12-08 02:22:00,
2013-12-07 21:43:00,16.0,7.0,30.51,WNW,300,4.0,13.0,66,-99.99,,,-99.99,,2013-12-08 02:43:00,
2013-12-07 22:22:00,14.0,5.0,30.51,WNW,300,4.0,11.0,66,-99.99,,,-99.99,,2013-12-08 03:22:00,
2013-12-07 23:03:00,-999.0,-99.9,30.51,WNW,300,6.0,13.0,-999,-99.99,,,-99.99,,2013-12-08 04:03:00,
2013-12-07 23:23:00,14.0,3.0,30.52,WNW,290,7.0,10.0,60,-99.99,,,-99.99,,2013-12-08 04:23:00,
2013-12-07 23:43:00,14.0,3.0,30.52,WNW,290,9.0,14.0,60,-99.99,,,-99.99,,2013-12-08 04:43:00,